EDHK

Kiel-Holtenau Airport

Kiel, Germany
METAR EDHK 271550Z 07011KT 9999 BKN006 16/14 Q1021
Observed Flight Rules
May-27 @ 15:50 UTC (9 hours ago) Instrument Flight Rules
Wind Visibility Clouds
70° at 11 knots 10,000+ meters
  • Broken at 600' AGL
Temperatures Readings
Current 16°C / 61°F
Dewpoint 14°C / 57°F
Humidity 88%
Altimeter 30.15" Hg
Pressure 1021 hPa
Elevation 31
METAR EDHK 271550Z 07011KT 9999 BKN006 16/14 Q1021
Observed Flight Rules
May-27 @ 15:50 UTC
(9 hours ago)
IFR
Wind Visibility
70° at 11 knots 10,000+ meters
Clouds
  • Broken at 600' AGL
Temperature Dewpoint
16°C / 61°F 14°C / 57°F
Humidity Altimeter Pressure
88% 30.15" Hg 1021 hPa